Sullivan, IL

10:46 AM CST on January 30, 2015 (GMT -0600)
Coles County Memorial | Change Station
CLOSE
Current Station
Airport
Location: Mattoon,
Elevation: 722 ft
Nearby Weather Stations
Active Advisory: Special Statement

Elev 722 ft 39.47 °N, 88.27 °W | Updated 53 minutes ago

Clear
Clear
30 °F
Feels Like 20 °F
N
12
Wind Variable Wind from North

Today
High -- | Low -- °F
--% Chance of Precip.
Yesterday
High -- | Low -- °F
Precip. -- in
7:04 AM 5:11 PM
Waxing Gibbous, 83% visible
Pressure 30.56 in
Visibility 10.0 miles
Clouds Few 2100 ft
Windchill 20 °F
Dew Point 19 °F
Humidity 64%
Rainfall 0.00 in
Snow Depth Not available.
UV 2 out of 12
Pollen .10 out of 12
Air Quality Not available.
Flu Activity Not available.
METAR KMTO 301553Z AUTO 01010KT 10SM FEW021 M01/M07 A3053 RMK AO2 SLP348 T10111072

More Conditions Fewer Conditions

Pressure 30.56 in
Visibility 10.0 miles
Clouds Few 2100 ft
Windchill 20 °F
Dew Point 19 °F
Humidity 64%
Rainfall 0.00 in
Snow Depth Not available.
UV 2 out of 12
Pollen .10 out of 12
Air Quality Not available.
Flu Activity Not available.
METAR KMTO 301553Z AUTO 01010KT 10SM FEW021 M01/M07 A3053 RMK AO2 SLP348 T10111072

More Conditions Fewer Conditions

10-Day Weather Forecast

Almanac

Astronomy

Jan. 30, 2015 Rise Set
Actual Time
Civil Twilight
Nautical Twilight
Astronomical Twilight
Moon
Length of Visible Light
Length of Day
Tomorrow will be .
, % of the Moon is Illuminated

Today's Extremes

State Highs State Lows

Community

WunderPhotos

Upload Photos

1,791,809 photos uploaded!

WunderBlogs® & News

Nearby

Air Quality

  Air Quality AQ Index Pollutant
Not available.

Snow Depth

Station Depth Elevation

Earthquake Activity

City Distance Mag. Time & Date
Minimum magnitude displayed is 2.5.

Coastal Water Temperatures

Place Temperature

Nearby Weather Stations